createdAt,value
2018-12-18T00:01:14.245Z,3.00
2018-12-18T00:03:42.984Z,3.00
2018-12-18T00:06:11.790Z,3.00
2018-12-18T00:08:40.468Z,3.00
2018-12-18T00:11:10.634Z,3.00
2018-12-18T00:13:39.342Z,3.00
2018-12-18T00:16:08.094Z,3.10
2018-12-18T00:18:36.844Z,3.10
2018-12-18T00:21:05.581Z,3.10
2018-12-18T00:23:34.269Z,3.10
2018-12-18T00:26:03.029Z,3.10
2018-12-18T00:28:31.753Z,3.20
2018-12-18T00:31:00.464Z,3.10
2018-12-18T00:33:29.185Z,3.20
2018-12-18T00:35:57.908Z,3.20
2018-12-18T00:38:26.578Z,3.20
2018-12-18T00:40:55.337Z,3.30
2018-12-18T00:43:24.132Z,3.30
2018-12-18T00:45:53.254Z,3.30
2018-12-18T00:48:21.967Z,3.30
2018-12-18T00:50:50.694Z,3.30
2018-12-18T00:53:19.469Z,3.40
2018-12-18T00:55:48.187Z,3.40
2018-12-18T00:58:16.942Z,3.40
2018-12-18T01:00:45.662Z,3.50
2018-12-18T01:03:14.430Z,3.40
2018-12-18T01:05:43.091Z,3.40
2018-12-18T01:08:11.859Z,3.40
2018-12-18T01:10:40.589Z,3.30
2018-12-18T01:13:09.356Z,3.40
2018-12-18T01:15:38.146Z,3.40
2018-12-18T01:18:06.865Z,3.40
2018-12-18T01:20:35.543Z,3.40
2018-12-18T01:23:04.295Z,3.40
2018-12-18T01:25:33.072Z,3.40
2018-12-18T01:28:01.777Z,3.40
2018-12-18T01:30:30.496Z,3.40
2018-12-18T01:32:59.245Z,3.40
2018-12-18T01:35:27.908Z,3.40
2018-12-18T01:37:56.612Z,3.40
2018-12-18T01:40:25.433Z,3.40
2018-12-18T01:42:54.178Z,3.40
2018-12-18T01:45:23.164Z,3.50
2018-12-18T01:47:51.929Z,3.50
2018-12-18T01:50:20.625Z,3.50
2018-12-18T01:52:49.339Z,3.50
2018-12-18T01:55:18.052Z,3.50
2018-12-18T01:57:46.759Z,3.50
2018-12-18T02:00:16.376Z,3.50
2018-12-18T02:02:45.132Z,3.60
2018-12-18T02:05:13.845Z,3.60
2018-12-18T02:07:42.575Z,3.60
2018-12-18T02:10:11.325Z,3.60
2018-12-18T02:12:40.023Z,3.60
2018-12-18T02:15:08.702Z,3.70
2018-12-18T02:17:37.713Z,3.60
2018-12-18T02:20:07.532Z,3.60
2018-12-18T02:22:36.239Z,3.70
2018-12-18T02:25:06.069Z,3.70
2018-12-18T02:27:34.758Z,3.70
2018-12-18T02:30:03.470Z,3.70
2018-12-18T02:32:32.165Z,3.70
2018-12-18T02:35:00.902Z,3.70
2018-12-18T02:37:29.627Z,3.70
2018-12-18T02:39:58.304Z,3.80
2018-12-18T02:42:27.008Z,3.80
2018-12-18T02:44:55.719Z,3.80
2018-12-18T02:47:24.442Z,3.80
2018-12-18T02:49:53.142Z,3.80
2018-12-18T02:52:21.865Z,3.80
2018-12-18T02:54:50.600Z,3.90
2018-12-18T02:57:19.323Z,3.80
2018-12-18T02:59:48.102Z,3.80
2018-12-18T03:02:16.843Z,3.90
2018-12-18T03:04:45.573Z,3.90
2018-12-18T03:07:14.404Z,3.90
2018-12-18T03:09:43.104Z,3.90
2018-12-18T03:12:11.840Z,3.90
2018-12-18T03:14:40.537Z,3.90
2018-12-18T03:17:09.527Z,3.90
2018-12-18T03:19:38.484Z,3.90
2018-12-18T03:22:07.164Z,3.90
2018-12-18T03:24:35.902Z,3.90
2018-12-18T03:27:04.588Z,3.90
2018-12-18T03:29:33.334Z,3.90
2018-12-18T03:32:03.724Z,4.00
2018-12-18T03:34:32.439Z,3.90
2018-12-18T03:37:01.153Z,4.00
2018-12-18T03:39:29.831Z,3.90
2018-12-18T03:41:58.543Z,3.90
2018-12-18T03:44:27.323Z,3.90
2018-12-18T03:46:56.079Z,4.00
2018-12-18T03:49:24.812Z,3.90
2018-12-18T03:51:53.554Z,3.90
2018-12-18T03:54:22.472Z,3.90
2018-12-18T03:56:51.247Z,3.90
2018-12-18T03:59:19.972Z,3.90
2018-12-18T04:01:48.678Z,3.90
2018-12-18T04:04:17.361Z,3.90
2018-12-18T04:06:46.094Z,3.90
2018-12-18T04:09:14.844Z,4.00
2018-12-18T04:14:50.341Z,3.90
2018-12-18T04:17:19.316Z,3.90
2018-12-18T04:19:48.027Z,3.90
2018-12-18T04:22:16.783Z,4.00
2018-12-18T04:24:45.461Z,4.00
2018-12-18T04:27:14.144Z,3.90
2018-12-18T04:29:43.380Z,3.90
2018-12-18T04:32:12.083Z,4.00
2018-12-18T04:34:43.169Z,4.00
2018-12-18T04:37:11.439Z,4.00
2018-12-18T04:39:40.154Z,4.00
2018-12-18T04:42:08.857Z,4.10
2018-12-18T04:44:37.524Z,4.10
2018-12-18T04:47:06.251Z,4.10
2018-12-18T04:49:35.101Z,4.10
2018-12-18T04:52:04.123Z,4.10
2018-12-18T04:54:32.795Z,4.10
2018-12-18T04:57:01.500Z,4.10
2018-12-18T04:59:30.215Z,4.10
2018-12-18T05:01:59.064Z,4.10
2018-12-18T05:04:27.778Z,4.10
2018-12-18T05:06:56.570Z,4.00
2018-12-18T05:09:25.324Z,4.00
2018-12-18T05:11:54.050Z,4.00
2018-12-18T05:14:22.957Z,4.10
2018-12-18T05:16:51.886Z,4.10
2018-12-18T05:19:20.664Z,4.10
2018-12-18T05:21:49.364Z,4.40
2018-12-18T05:24:18.077Z,4.30
2018-12-18T05:26:46.756Z,4.20
2018-12-18T05:29:15.547Z,4.20
2018-12-18T05:31:44.262Z,4.20
2018-12-18T05:34:12.982Z,4.10
2018-12-18T05:36:41.694Z,4.10
2018-12-18T05:39:10.421Z,4.10
2018-12-18T05:41:39.255Z,4.10
2018-12-18T05:44:08.921Z,4.20
2018-12-18T05:46:37.706Z,4.20
2018-12-18T05:49:06.416Z,4.10
2018-12-18T05:51:35.154Z,4.20
2018-12-18T05:54:03.949Z,4.10
2018-12-18T05:56:32.676Z,4.10
2018-12-18T05:59:01.357Z,4.10
2018-12-18T06:01:30.695Z,4.20
2018-12-18T06:03:59.486Z,4.20
2018-12-18T06:06:28.210Z,4.10
2018-12-18T06:08:57.021Z,4.20
2018-12-18T06:11:25.802Z,4.20
2018-12-18T06:13:54.468Z,4.30
2018-12-18T06:16:23.168Z,4.30
2018-12-18T06:18:51.951Z,4.20
2018-12-18T06:21:20.712Z,4.20
2018-12-18T06:23:49.420Z,4.20
2018-12-18T06:26:18.137Z,4.20
2018-12-18T06:28:46.955Z,4.20
2018-12-18T06:31:15.668Z,4.20
2018-12-18T06:33:44.375Z,4.20
2018-12-18T06:36:13.111Z,4.30
2018-12-18T06:38:41.780Z,4.30
2018-12-18T06:41:10.517Z,4.30
2018-12-18T06:43:39.184Z,4.30
2018-12-18T06:46:07.930Z,4.30
2018-12-18T06:48:36.641Z,4.40
2018-12-18T06:51:05.347Z,4.40
2018-12-18T06:53:34.098Z,4.40
2018-12-18T06:56:02.858Z,4.40
2018-12-18T06:58:31.625Z,4.40
2018-12-18T07:01:01.425Z,4.40
2018-12-18T07:03:30.441Z,4.40
2018-12-18T07:05:59.165Z,4.40
2018-12-18T07:08:27.863Z,4.50
2018-12-18T07:10:57.798Z,4.50
2018-12-18T07:13:26.557Z,4.50
2018-12-18T07:15:55.358Z,4.50
2018-12-18T07:18:24.069Z,4.50
2018-12-18T07:20:52.816Z,4.50
2018-12-18T07:23:21.663Z,4.50
2018-12-18T07:25:50.378Z,4.50
2018-12-18T07:28:19.114Z,4.50
2018-12-18T07:30:47.788Z,4.50
2018-12-18T07:33:16.570Z,4.50
2018-12-18T07:35:45.249Z,4.50
2018-12-18T07:38:13.974Z,4.60
2018-12-18T07:40:42.671Z,4.60
2018-12-18T07:43:11.361Z,4.60
2018-12-18T07:45:40.172Z,4.60
2018-12-18T07:48:08.978Z,4.60
2018-12-18T07:50:37.689Z,4.60
2018-12-18T07:53:06.401Z,4.60
2018-12-18T07:55:35.112Z,4.70
2018-12-18T07:58:03.919Z,4.70
2018-12-18T08:00:32.629Z,4.80
2018-12-18T08:03:02.175Z,4.80
2018-12-18T08:05:30.856Z,4.80
2018-12-18T08:07:59.565Z,4.80
2018-12-18T08:10:28.283Z,4.80
2018-12-18T08:12:57.150Z,4.90
2018-12-18T08:15:25.904Z,4.90
2018-12-18T08:17:54.599Z,5.00
2018-12-18T08:20:23.264Z,4.90
2018-12-18T08:22:52.014Z,4.90
2018-12-18T08:25:20.739Z,5.00
2018-12-18T08:27:49.494Z,5.00
2018-12-18T08:30:19.140Z,5.00
2018-12-18T08:32:47.801Z,5.00
2018-12-18T08:35:16.577Z,5.00
2018-12-18T08:37:45.291Z,5.00
2018-12-18T08:40:13.997Z,5.10
2018-12-18T08:42:42.692Z,5.00
2018-12-18T08:45:11.433Z,5.00
2018-12-18T08:47:40.114Z,5.10
2018-12-18T08:50:08.874Z,5.10
2018-12-18T08:52:37.592Z,5.00
2018-12-18T08:55:06.828Z,5.10
2018-12-18T08:57:35.532Z,5.10
2018-12-18T09:00:06.169Z,5.10
2018-12-18T09:02:34.945Z,5.10
2018-12-18T09:05:03.623Z,5.10
2018-12-18T09:07:32.332Z,5.20
2018-12-18T09:10:01.055Z,5.10
2018-12-18T09:12:29.818Z,5.20
2018-12-18T09:14:58.554Z,5.30
2018-12-18T09:17:32.767Z,5.20
2018-12-18T09:20:01.511Z,5.30
2018-12-18T09:22:30.913Z,5.30
2018-12-18T09:24:59.598Z,5.30
2018-12-18T09:27:28.530Z,5.40
2018-12-18T09:29:57.263Z,5.50
2018-12-18T09:32:25.962Z,5.50
2018-12-18T09:34:54.709Z,5.60
2018-12-18T09:37:23.421Z,5.60
2018-12-18T09:39:52.124Z,5.60
2018-12-18T09:42:26.387Z,5.60
2018-12-18T09:44:55.231Z,5.60
2018-12-18T09:47:23.942Z,5.60
2018-12-18T09:49:52.702Z,5.70
2018-12-18T09:52:21.364Z,5.70
2018-12-18T09:54:50.096Z,5.70
2018-12-18T09:57:24.199Z,5.70
2018-12-18T09:59:52.913Z,5.70
2018-12-18T10:02:21.647Z,5.70
2018-12-18T10:04:50.401Z,5.70
2018-12-18T10:07:19.215Z,5.60
2018-12-18T10:09:47.934Z,5.70
2018-12-18T10:12:18.324Z,5.70
2018-12-18T10:14:47.029Z,5.80
2018-12-18T10:17:15.732Z,5.80
2018-12-18T10:19:44.410Z,5.80
2018-12-18T10:22:13.134Z,6.00
2018-12-18T10:24:41.919Z,6.10
2018-12-18T10:27:10.625Z,6.10
2018-12-18T10:29:39.310Z,6.20
2018-12-18T10:32:08.046Z,6.30
2018-12-18T10:34:36.773Z,6.20
2018-12-18T10:37:05.529Z,6.20
2018-12-18T10:39:34.243Z,6.20
2018-12-18T10:42:02.944Z,6.20
2018-12-18T10:44:31.660Z,6.20
2018-12-18T10:47:00.357Z,6.20
2018-12-18T10:49:29.095Z,6.30
2018-12-18T10:51:57.868Z,6.30
2018-12-18T10:54:26.569Z,6.40
2018-12-18T10:56:55.409Z,6.50
2018-12-18T10:59:24.158Z,6.50
2018-12-18T11:01:54.561Z,6.40
2018-12-18T11:04:23.264Z,6.40
2018-12-18T11:06:52.019Z,6.40
2018-12-18T11:09:20.709Z,6.50
2018-12-18T11:11:49.462Z,6.40
2018-12-18T11:14:18.347Z,6.40
2018-12-18T11:16:47.046Z,6.40
2018-12-18T11:19:15.808Z,6.40
2018-12-18T11:21:44.489Z,6.40
2018-12-18T11:24:13.237Z,6.50
2018-12-18T11:26:41.987Z,6.60
2018-12-18T11:29:10.689Z,6.60
2018-12-18T11:31:39.702Z,6.50
2018-12-18T11:34:08.400Z,6.60
2018-12-18T11:36:37.114Z,6.80
2018-12-18T11:39:06.714Z,6.80
2018-12-18T11:41:35.376Z,7.00
2018-12-18T11:44:04.056Z,7.20
2018-12-18T11:46:32.780Z,7.80
2018-12-18T11:49:01.500Z,8.40
2018-12-18T11:51:30.224Z,9.10
2018-12-18T11:53:58.933Z,9.00
2018-12-18T11:56:27.673Z,9.00
2018-12-18T11:58:56.331Z,9.40
2018-12-18T12:01:25.013Z,9.70
2018-12-18T12:03:53.787Z,10.00
2018-12-18T12:06:23.125Z,10.30
2018-12-18T12:08:52.292Z,10.50
2018-12-18T12:11:21.041Z,10.60
2018-12-18T12:13:49.757Z,10.80
2018-12-18T12:16:18.456Z,11.20
2018-12-18T12:18:47.172Z,10.50
2018-12-18T12:21:15.836Z,10.20
2018-12-18T12:23:44.549Z,10.00
2018-12-18T12:26:18.634Z,9.40
2018-12-18T12:28:47.350Z,9.00
2018-12-18T12:31:16.074Z,8.80
2018-12-18T12:33:44.794Z,8.70
2018-12-18T12:36:13.493Z,8.50
2018-12-18T12:38:42.211Z,8.70
2018-12-18T12:41:10.949Z,8.50
2018-12-18T12:43:39.716Z,8.30
2018-12-18T12:46:08.373Z,8.20
2018-12-18T12:51:42.750Z,8.60
2018-12-18T12:54:11.600Z,8.40
2018-12-18T12:56:40.402Z,8.00
2018-12-18T12:59:09.189Z,7.80
2018-12-18T13:01:42.188Z,7.70
2018-12-18T13:04:08.627Z,7.50
2018-12-18T13:06:37.287Z,7.50
2018-12-18T13:09:07.264Z,7.60
2018-12-18T13:11:35.968Z,7.60
2018-12-18T13:14:04.768Z,7.60
2018-12-18T13:16:33.450Z,7.60
2018-12-18T13:19:02.189Z,7.50
2018-12-18T13:21:30.924Z,7.40
2018-12-18T13:23:59.672Z,7.20
2018-12-18T13:26:28.393Z,7.30
2018-12-18T13:28:57.097Z,7.20
2018-12-18T13:31:25.833Z,7.30
2018-12-18T13:33:54.745Z,7.40
2018-12-18T13:36:23.494Z,7.20
2018-12-18T13:38:52.239Z,7.30
2018-12-18T13:41:21.039Z,7.30
2018-12-18T13:43:49.756Z,7.20
2018-12-18T13:46:18.433Z,7.10
2018-12-18T13:48:47.137Z,7.10
2018-12-18T13:51:15.929Z,7.10
2018-12-18T13:53:44.670Z,7.00
2018-12-18T13:56:13.394Z,7.00
2018-12-18T13:58:42.211Z,7.00
2018-12-18T14:01:10.979Z,7.00
2018-12-18T14:03:39.712Z,6.90
2018-12-18T14:06:08.380Z,6.90
2018-12-18T14:08:37.098Z,7.00
2018-12-18T14:11:05.763Z,7.00
2018-12-18T14:13:34.476Z,6.90
2018-12-18T14:16:03.164Z,6.90
2018-12-18T14:18:31.900Z,6.90
2018-12-18T14:21:00.669Z,6.80
2018-12-18T14:23:29.365Z,6.70
2018-12-18T14:25:58.114Z,6.80
2018-12-18T14:28:26.856Z,6.80
2018-12-18T14:30:55.558Z,6.80
2018-12-18T14:33:24.341Z,6.80
2018-12-18T14:35:55.447Z,6.80
2018-12-18T14:38:24.151Z,6.80
2018-12-18T14:40:52.849Z,6.70
2018-12-18T14:43:21.572Z,6.70
2018-12-18T14:45:50.363Z,6.70
2018-12-18T14:48:19.031Z,6.60
2018-12-18T14:50:47.767Z,6.50
2018-12-18T14:53:16.619Z,6.50
2018-12-18T14:55:45.398Z,6.30
2018-12-18T14:58:14.147Z,6.30
2018-12-18T15:00:42.856Z,6.30
2018-12-18T15:03:11.635Z,6.20
2018-12-18T15:05:40.365Z,6.20
2018-12-18T15:08:09.051Z,6.20
2018-12-18T15:10:37.984Z,6.10
2018-12-18T15:13:06.795Z,6.10
2018-12-18T15:15:35.517Z,6.00
2018-12-18T15:18:04.270Z,6.00
2018-12-18T15:20:32.980Z,5.90
2018-12-18T15:23:01.734Z,5.80
2018-12-18T15:25:31.415Z,5.80
2018-12-18T15:28:00.130Z,5.70
2018-12-18T15:30:28.825Z,5.60
2018-12-18T15:32:57.563Z,5.60
2018-12-18T15:35:26.799Z,5.50
2018-12-18T15:37:55.518Z,5.50
2018-12-18T15:40:24.425Z,5.50
2018-12-18T15:42:53.158Z,5.40
2018-12-18T15:45:21.836Z,5.40
2018-12-18T15:47:50.615Z,5.30
2018-12-18T15:50:19.291Z,5.20
2018-12-18T15:52:48.052Z,5.20
2018-12-18T15:55:16.817Z,5.10
2018-12-18T15:57:45.565Z,5.00
2018-12-18T16:00:14.396Z,5.00
2018-12-18T16:02:43.195Z,5.00
2018-12-18T16:05:11.916Z,4.90
2018-12-18T16:07:40.625Z,4.90
2018-12-18T16:10:09.303Z,4.80
2018-12-18T16:12:38.008Z,4.80
2018-12-18T16:15:08.315Z,4.80
2018-12-18T16:17:37.071Z,4.80
2018-12-18T16:20:08.649Z,4.70
2018-12-18T16:22:37.426Z,4.70
2018-12-18T16:25:06.815Z,4.70
2018-12-18T16:27:35.573Z,4.60
2018-12-18T16:30:05.500Z,4.60
2018-12-18T16:32:34.204Z,4.50
2018-12-18T16:35:02.876Z,4.50
2018-12-18T16:37:31.807Z,4.50
2018-12-18T16:40:00.568Z,4.40
2018-12-18T16:42:29.401Z,4.40
2018-12-18T16:44:58.169Z,4.30
2018-12-18T16:47:27.076Z,4.20
2018-12-18T16:49:55.769Z,4.20
2018-12-18T16:52:24.520Z,4.20
2018-12-18T16:54:53.324Z,4.20
2018-12-18T16:57:22.281Z,4.20
2018-12-18T16:59:50.952Z,4.20
2018-12-18T17:02:20.230Z,4.20
2018-12-18T17:04:48.957Z,4.20
2018-12-18T17:07:17.752Z,4.20
2018-12-18T17:09:46.546Z,4.20
2018-12-18T17:12:15.413Z,4.20
2018-12-18T17:14:44.396Z,4.10
2018-12-18T17:17:13.071Z,4.10
2018-12-18T17:19:41.828Z,4.10
2018-12-18T17:22:10.554Z,4.10
2018-12-18T17:24:39.310Z,4.10
2018-12-18T17:27:07.993Z,4.00
2018-12-18T17:29:36.702Z,4.00
2018-12-18T17:32:05.408Z,4.00
2018-12-18T17:34:34.200Z,3.90
2018-12-18T17:37:02.904Z,3.90
2018-12-18T17:39:31.679Z,3.90
2018-12-18T17:42:00.410Z,3.80
2018-12-18T17:44:29.150Z,3.80
2018-12-18T17:46:58.025Z,3.80
2018-12-18T17:49:26.778Z,3.70
2018-12-18T17:51:55.518Z,3.70
2018-12-18T17:54:24.223Z,3.70
2018-12-18T17:56:52.980Z,3.70
2018-12-18T17:59:21.803Z,3.70
2018-12-18T18:01:50.606Z,3.70
2018-12-18T18:04:19.304Z,3.70
2018-12-18T18:06:48.053Z,3.70
2018-12-18T18:09:16.724Z,3.60
2018-12-18T18:11:45.564Z,3.60
2018-12-18T18:14:14.341Z,3.60
2018-12-18T18:16:43.145Z,3.60
2018-12-18T18:19:11.869Z,3.60
2018-12-18T18:21:40.620Z,3.60
2018-12-18T18:24:09.337Z,3.60
2018-12-18T18:26:38.111Z,3.50
2018-12-18T18:29:06.881Z,3.50
2018-12-18T18:31:35.650Z,3.50
2018-12-18T18:34:04.599Z,3.40
2018-12-18T18:36:33.501Z,3.40
2018-12-18T18:39:02.293Z,3.40
2018-12-18T18:41:30.956Z,3.40
2018-12-18T18:43:59.678Z,3.30
2018-12-18T18:46:28.384Z,3.30
2018-12-18T18:48:57.081Z,3.30
2018-12-18T18:51:25.753Z,3.30
2018-12-18T18:53:54.488Z,3.30
2018-12-18T18:56:23.432Z,3.20
2018-12-18T18:58:52.190Z,3.20
2018-12-18T19:01:20.932Z,3.20
2018-12-18T19:03:49.641Z,3.20
2018-12-18T19:06:18.359Z,3.10
2018-12-18T19:08:47.078Z,3.10
2018-12-18T19:11:15.807Z,3.10
2018-12-18T19:13:44.515Z,3.10
2018-12-18T19:16:13.214Z,3.10
2018-12-18T19:18:41.964Z,3.10
2018-12-18T19:21:10.684Z,3.10
2018-12-18T19:23:39.438Z,3.10
2018-12-18T19:26:08.300Z,3.20
2018-12-18T19:28:37.054Z,3.20
2018-12-18T19:31:05.748Z,3.10
2018-12-18T19:33:36.935Z,3.10
2018-12-18T19:36:05.223Z,3.10
2018-12-18T19:38:33.940Z,3.10
2018-12-18T19:41:02.686Z,3.00
2018-12-18T19:43:31.410Z,3.00
2018-12-18T19:46:00.105Z,3.00
2018-12-18T19:48:28.790Z,3.00
2018-12-18T19:50:57.578Z,2.90
2018-12-18T19:53:26.299Z,2.90
2018-12-18T19:55:55.002Z,2.90
2018-12-18T19:58:23.699Z,2.90
2018-12-18T20:00:52.447Z,2.90
2018-12-18T20:03:21.164Z,2.90
2018-12-18T20:05:49.815Z,2.90
2018-12-18T20:08:18.522Z,2.80
2018-12-18T20:10:47.253Z,2.80
2018-12-18T20:13:15.989Z,2.80
2018-12-18T20:15:44.961Z,2.80
2018-12-18T20:18:13.706Z,2.80
2018-12-18T20:20:42.442Z,2.70
2018-12-18T20:23:11.141Z,2.70
2018-12-18T20:25:39.902Z,2.70
2018-12-18T20:28:08.634Z,2.70
2018-12-18T20:30:37.341Z,2.60
2018-12-18T20:33:06.175Z,2.60
2018-12-18T20:35:34.862Z,2.60
2018-12-18T20:38:03.587Z,2.60
2018-12-18T20:40:32.309Z,2.50
2018-12-18T20:43:01.035Z,2.50
2018-12-18T20:45:29.732Z,2.50
2018-12-18T20:47:58.965Z,2.40
2018-12-18T20:50:27.674Z,2.40
2018-12-18T20:52:56.425Z,2.40
2018-12-18T20:55:25.141Z,2.40
2018-12-18T20:57:54.038Z,2.30
2018-12-18T21:00:22.773Z,2.30
2018-12-18T21:02:51.757Z,2.20
2018-12-18T21:05:20.552Z,2.20
2018-12-18T21:07:49.303Z,2.20
2018-12-18T21:10:17.975Z,2.20
2018-12-18T21:12:46.739Z,2.00
2018-12-18T21:15:15.416Z,2.00
2018-12-18T21:17:44.154Z,2.00
2018-12-18T21:20:12.881Z,2.00
2018-12-18T21:22:41.644Z,2.00
2018-12-18T21:25:10.370Z,2.00
2018-12-18T21:27:39.072Z,2.00
2018-12-18T21:30:09.428Z,2.00
2018-12-18T21:32:38.108Z,2.00
2018-12-18T21:35:06.914Z,2.00
2018-12-18T21:37:35.638Z,2.00
2018-12-18T21:40:05.920Z,2.00
2018-12-18T21:42:34.616Z,2.00
2018-12-18T21:45:03.338Z,2.00
2018-12-18T21:47:32.083Z,1.90
2018-12-18T21:50:00.771Z,2.00
2018-12-18T21:52:29.479Z,1.90
2018-12-18T21:54:58.180Z,1.90
2018-12-18T21:57:26.934Z,1.80
2018-12-18T21:59:55.694Z,1.80
2018-12-18T22:02:24.441Z,1.80
2018-12-18T22:04:53.148Z,1.80
2018-12-18T22:07:22.051Z,1.70
2018-12-18T22:09:50.956Z,1.70
2018-12-18T22:12:19.671Z,1.70
2018-12-18T22:14:48.426Z,1.60
2018-12-18T22:17:17.170Z,1.60
2018-12-18T22:19:45.861Z,1.60
2018-12-18T22:22:14.624Z,1.60
2018-12-18T22:24:43.337Z,1.60
2018-12-18T22:27:12.065Z,1.60
2018-12-18T22:29:40.764Z,1.60
2018-12-18T22:32:09.476Z,1.60
2018-12-18T22:34:38.152Z,1.60
2018-12-18T22:37:06.862Z,1.50
2018-12-18T22:39:35.630Z,1.50
2018-12-18T22:42:04.409Z,1.50
2018-12-18T22:44:33.142Z,1.40
2018-12-18T22:47:01.884Z,1.40
2018-12-18T22:49:30.561Z,1.40
2018-12-18T22:51:59.276Z,1.40
2018-12-18T22:54:27.984Z,1.40
2018-12-18T22:56:56.676Z,1.30
2018-12-18T22:59:25.390Z,1.30
2018-12-18T23:01:54.141Z,1.30
2018-12-18T23:04:22.874Z,1.30
2018-12-18T23:06:51.638Z,1.20
2018-12-18T23:09:20.350Z,1.20
2018-12-18T23:11:49.064Z,1.20
2018-12-18T23:14:17.774Z,1.20
2018-12-18T23:16:46.466Z,1.20
2018-12-18T23:19:15.322Z,1.20
2018-12-18T23:21:43.993Z,1.10
2018-12-18T23:24:12.730Z,1.10
2018-12-18T23:26:41.439Z,1.10
2018-12-18T23:29:10.151Z,1.10
2018-12-18T23:31:38.891Z,1.10
2018-12-18T23:34:07.641Z,1.10
2018-12-18T23:36:36.348Z,1.10
2018-12-18T23:39:06.977Z,1.10
2018-12-18T23:41:36.594Z,1.10
2018-12-18T23:44:05.731Z,1.10
2018-12-18T23:46:34.513Z,1.10
2018-12-18T23:49:03.219Z,1.10
2018-12-18T23:51:31.956Z,1.10
2018-12-18T23:54:00.681Z,1.10
2018-12-18T23:56:29.356Z,1.00
2018-12-18T23:58:58.082Z,1.10
